createdAt,value
2022-11-04T00:01:49.252Z,12.93
2022-11-04T00:05:51.073Z,11.23
2022-11-04T00:09:52.893Z,9.50
2022-11-04T00:13:54.709Z,11.00
2022-11-04T00:17:56.530Z,10.03
2022-11-04T00:22:17.095Z,12.20
2022-11-04T00:26:37.454Z,12.00
2022-11-04T00:30:39.260Z,14.40
2022-11-04T00:34:41.041Z,12.80
2022-11-04T00:38:42.908Z,10.20
2022-11-04T00:42:45.627Z,14.97
2022-11-04T00:46:47.425Z,11.30
2022-11-04T00:50:49.193Z,10.97
2022-11-04T00:54:50.952Z,14.30
2022-11-04T00:58:52.798Z,13.03
2022-11-04T01:02:55.470Z,12.17
2022-11-04T01:06:57.320Z,15.73
2022-11-04T01:11:05.593Z,14.37
2022-11-04T01:15:07.916Z,14.17
2022-11-04T01:19:10.665Z,17.07
2022-11-04T01:23:12.444Z,14.43
2022-11-04T01:27:14.335Z,17.63
2022-11-04T01:31:18.786Z,15.63
2022-11-04T01:35:20.692Z,15.43
2022-11-04T01:39:22.470Z,18.87
2022-11-04T01:43:31.616Z,16.27
2022-11-04T01:47:41.954Z,16.77
2022-11-04T01:51:44.154Z,19.40
2022-11-04T01:55:51.635Z,19.23
2022-11-04T01:59:53.435Z,19.23
2022-11-04T02:04:18.460Z,19.77
2022-11-04T02:08:20.249Z,17.77
2022-11-04T02:12:40.397Z,20.53
2022-11-04T02:16:44.393Z,21.40
2022-11-04T02:20:52.347Z,18.83
2022-11-04T02:25:06.069Z,21.90
2022-11-04T02:29:38.475Z,20.23
2022-11-04T02:33:53.622Z,20.53
2022-11-04T02:38:22.416Z,19.23
2022-11-04T02:42:51.970Z,22.87
2022-11-04T02:47:24.203Z,22.97
2022-11-04T02:51:40.206Z,27.20
2022-11-04T02:55:46.040Z,20.87
2022-11-04T03:00:08.585Z,20.47
2022-11-04T03:04:15.880Z,21.77
2022-11-04T03:08:52.193Z,20.23
2022-11-04T03:13:02.764Z,20.93
2022-11-04T03:17:08.268Z,21.33
2022-11-04T03:21:11.457Z,20.43
2022-11-04T03:25:13.207Z,21.33
2022-11-04T03:29:20.919Z,20.27
2022-11-04T03:33:48.271Z,20.73
2022-11-04T03:37:50.275Z,19.03
2022-11-04T03:41:57.206Z,19.27
2022-11-04T03:45:59.027Z,19.03
2022-11-04T03:50:22.509Z,21.43
2022-11-04T03:54:24.284Z,20.83
2022-11-04T03:59:04.505Z,22.10
2022-11-04T04:03:18.224Z,18.57
2022-11-04T04:07:50.120Z,18.50
2022-11-04T04:12:01.196Z,19.53
2022-11-04T04:16:11.131Z,21.30
2022-11-04T04:20:21.585Z,23.37
2022-11-04T04:24:44.212Z,21.93
2022-11-04T04:28:46.040Z,24.17
2022-11-04T04:32:58.128Z,22.47
2022-11-04T04:37:07.123Z,22.70
2022-11-04T04:41:45.990Z,23.20
2022-11-04T04:45:56.614Z,24.17
2022-11-04T04:49:59.936Z,24.83
2022-11-04T04:54:01.807Z,24.90
2022-11-04T04:58:03.619Z,23.80
2022-11-04T05:02:05.523Z,23.93
2022-11-04T05:06:07.790Z,23.90
2022-11-04T05:10:12.040Z,24.93
2022-11-04T05:14:14.045Z,26.00
2022-11-04T05:18:15.930Z,29.17
2022-11-04T05:22:17.792Z,27.43
2022-11-04T05:26:19.704Z,26.77
2022-11-04T05:30:21.564Z,26.30
2022-11-04T05:34:23.446Z,28.73
2022-11-04T05:38:25.250Z,29.73
2022-11-04T05:42:27.127Z,30.23
2022-11-04T05:46:29.399Z,31.77
2022-11-04T05:50:32.813Z,30.07
2022-11-04T05:54:37.129Z,28.33
2022-11-04T05:58:45.936Z,30.67
2022-11-04T06:03:45.892Z,27.70
2022-11-04T06:07:47.959Z,32.00
2022-11-04T06:11:49.908Z,31.33
2022-11-04T06:16:27.046Z,31.30
2022-11-04T06:34:23.781Z,26.57
2022-11-04T06:38:11.912Z,23.03
2022-11-04T06:47:06.879Z,15.67
2022-11-04T06:51:12.017Z,16.13
2022-11-04T07:06:16.658Z,13.30
2022-11-04T07:10:21.634Z,11.93
2022-11-04T07:14:23.890Z,10.87
2022-11-04T07:18:28.386Z,9.33
2022-11-04T07:22:30.295Z,13.17
2022-11-04T07:26:45.146Z,11.07
2022-11-04T07:30:50.234Z,9.77
2022-11-04T07:40:38.033Z,8.47
2022-11-04T07:44:40.131Z,8.00
2022-11-04T07:48:42.349Z,8.10
2022-11-04T07:52:44.508Z,8.87
2022-11-04T07:57:00.732Z,7.90
2022-11-04T08:01:08.633Z,5.57
2022-11-04T08:05:26.273Z,6.90
2022-11-04T08:09:35.532Z,6.57
2022-11-04T08:13:56.454Z,8.00
2022-11-04T08:18:01.052Z,6.83
2022-11-04T08:22:41.739Z,7.00
2022-11-04T08:26:44.357Z,7.57
2022-11-04T08:31:18.867Z,6.60
2022-11-04T12:39:08.780Z,7.37
2022-11-04T12:44:27.009Z,4.33
2022-11-04T12:49:19.359Z,5.70
2022-11-04T13:00:12.508Z,5.17
2022-11-04T13:10:19.019Z,5.70
2022-11-04T13:54:20.258Z,5.57
2022-11-04T13:58:50.937Z,5.87
2022-11-04T14:03:00.499Z,5.23
2022-11-04T15:07:53.752Z,5.70
2022-11-04T15:17:48.488Z,8.33
2022-11-04T15:22:02.507Z,6.60
2022-11-04T15:26:29.770Z,6.17
2022-11-04T15:31:04.454Z,9.67
2022-11-04T15:35:13.161Z,5.57
2022-11-04T15:39:27.157Z,7.00
2022-11-04T15:43:46.040Z,6.67
2022-11-04T15:48:38.214Z,7.20
2022-11-04T15:52:52.731Z,6.70
2022-11-04T15:56:58.584Z,5.70
2022-11-04T16:13:24.153Z,7.97
2022-11-04T16:17:26.923Z,8.33
2022-11-04T16:21:42.618Z,8.77
2022-11-04T16:25:49.557Z,7.50
2022-11-04T16:30:29.943Z,8.57
2022-11-04T16:40:25.090Z,8.57
2022-11-04T16:45:34.090Z,10.70
2022-11-04T17:21:38.254Z,8.77
2022-11-04T21:07:31.615Z,8.40
2022-11-04T21:12:48.272Z,7.87
2022-11-04T21:27:18.510Z,8.70
2022-11-04T21:32:17.071Z,9.70
2022-11-04T21:36:20.951Z,11.20
2022-11-04T21:40:58.537Z,10.20
2022-11-04T21:51:21.253Z,8.67
2022-11-04T21:54:10.621Z,9.93
2022-11-04T21:58:12.820Z,11.37
2022-11-04T22:02:15.038Z,12.50
2022-11-04T22:06:17.157Z,11.50
2022-11-04T22:10:19.047Z,10.03
2022-11-04T22:14:21.142Z,12.30
2022-11-04T22:18:23.058Z,8.97
2022-11-04T22:22:24.870Z,9.47
2022-11-04T22:26:31.288Z,11.13
2022-11-04T22:30:35.741Z,11.03
2022-11-04T22:34:37.578Z,10.93
2022-11-04T22:38:40.541Z,13.23
2022-11-04T22:42:43.662Z,11.10
2022-11-04T22:46:45.506Z,13.30
2022-11-04T22:50:53.932Z,12.23
2022-11-04T22:54:55.938Z,9.83
2022-11-04T22:58:58.073Z,10.27
2022-11-04T23:03:00.223Z,10.13
2022-11-04T23:07:02.264Z,11.33
2022-11-04T23:11:29.095Z,11.53
2022-11-04T23:15:49.448Z,11.43
2022-11-04T23:19:51.202Z,11.70
2022-11-04T23:24:11.799Z,10.13
2022-11-04T23:28:32.360Z,10.53
2022-11-04T23:32:34.102Z,8.37
2022-11-04T23:37:14.473Z,8.13
2022-11-04T23:41:34.597Z,8.27
2022-11-04T23:45:54.943Z,11.30
2022-11-04T23:50:15.310Z,9.17
2022-11-04T23:54:44.677Z,10.00
2022-11-04T23:59:05.065Z,10.37
